Time;durP1;ratioP1;P1;durP2;ratioP2;P2;SDS_P1;SDS_P2;PMS_P1;PMS_P2;Temp;Humidity;BMP_temperature;BMP_pressure;BME280_temperature;BME280_humidity;BME280_pressure;Samples;Min_cycle;Max_cycle;Signal;HPM_P1;HPM_P2
2023/09/08 00:00:45;;;;;;;11.30;10.27;;;;;;;;;;5003354;28;20129;-86
2023/09/08 00:03:12;;;;;;;11.05;9.88;;;;;;;;;;4994559;28;20073;-86
2023/09/08 00:05:39;;;;;;;12.52;11.27;;;;;;;;;;4982304;28;20046;-87
2023/09/08 00:08:06;;;;;;;11.70;10.60;;;;;;;;;;4976981;28;20082;-86
2023/09/08 00:10:34;;;;;;;14.98;10.40;;;;;;;;;;4993906;28;20089;-86
2023/09/08 00:13:01;;;;;;;10.93;9.35;;;;;;;;;;4976605;28;20050;-86
2023/09/08 00:15:28;;;;;;;11.52;10.27;;;;;;;;;;4976952;28;20043;-86
2023/09/08 00:17:56;;;;;;;13.02;10.50;;;;;;;;;;4976884;28;20054;-86
2023/09/08 00:20:24;;;;;;;11.38;10.27;;;;;;;;;;4993913;28;20502;-86
2023/09/08 00:22:51;;;;;;;12.30;10.00;;;;;;;;;;4976915;28;20050;-85
2023/09/08 00:25:19;;;;;;;13.57;11.50;;;;;;;;;;4976623;28;20057;-86
2023/09/08 00:27:46;;;;;;;10.60;9.52;;;;;;;;;;4993935;28;20558;-86
2023/09/08 00:30:13;;;;;;;10.13;9.20;;;;;;;;;;4976778;28;20058;-86
2023/09/08 00:32:41;;;;;;;12.02;9.20;;;;;;;;;;4976312;28;20462;-86
2023/09/08 00:35:11;;;;;;;12.90;11.48;;;;;;;;;;4976630;28;20054;-86
2023/09/08 00:37:40;;;;;;;12.50;10.88;;;;;;;;;;4976704;28;20097;-86
2023/09/08 00:40:10;;;;;;;12.50;11.25;;;;;;;;;;4976494;28;20050;-86
2023/09/08 00:42:38;;;;;;;14.35;10.82;;;;;;;;;;4993264;28;20058;-86
2023/09/08 00:45:05;;;;;;;13.48;11.00;;;;;;;;;;4976581;28;20051;-86
2023/09/08 00:47:33;;;;;;;12.45;11.15;;;;;;;;;;4976658;28;20435;-86
2023/09/08 00:50:01;;;;;;;12.07;10.77;;;;;;;;;;4993528;28;20086;-86
2023/09/08 00:52:32;;;;;;;17.13;11.05;;;;;;;;;;4976461;28;20053;-85
2023/09/08 00:55:00;;;;;;;11.88;10.77;;;;;;;;;;4976471;28;20054;-86
2023/09/08 00:57:27;;;;;;;11.57;10.38;;;;;;;;;;4976534;28;20105;-86
2023/09/08 00:59:54;;;;;;;12.43;11.23;;;;;;;;;;4993622;28;20470;-86
2023/09/08 01:02:22;;;;;;;11.90;10.70;;;;;;;;;;4976630;28;20125;-86
2023/09/08 01:04:50;;;;;;;14.20;10.70;;;;;;;;;;4993506;28;20054;-86
2023/09/08 01:07:18;;;;;;;12.48;10.68;;;;;;;;;;4976241;28;20462;-86
2023/09/08 01:09:46;;;;;;;12.77;11.30;;;;;;;;;;4993743;28;20046;-86
2023/09/08 01:12:13;;;;;;;12.15;10.95;;;;;;;;;;4976341;28;20097;-86
2023/09/08 01:14:41;;;;;;;12.20;10.57;;;;;;;;;;4976303;28;20046;-86
2023/09/08 01:17:08;;;;;;;12.98;10.25;;;;;;;;;;4993166;28;20510;-86
2023/09/08 01:19:36;;;;;;;16.17;12.40;;;;;;;;;;4977028;28;20573;-86
2023/09/08 01:22:20;;;;;;;13.18;9.98;;;;;;;;;;4979857;28;20078;-86
2023/09/08 01:25:06;;;;;;;12.50;11.27;;;;;;;;;;4980129;28;20050;-86
2023/09/08 01:27:35;;;;;;;14.40;11.15;;;;;;;;;;4996800;28;20054;-86
2023/09/08 01:30:04;;;;;;;12.57;11.27;;;;;;;;;;4979420;28;20450;-86
2023/09/08 01:32:35;;;;;;;12.35;11.02;;;;;;;;;;4980274;28;20057;-86
2023/09/08 01:35:03;;;;;;;12.30;11.00;;;;;;;;;;4979510;28;20137;-86
2023/09/08 01:37:30;;;;;;;12.77;11.55;;;;;;;;;;4996950;28;20536;-86
2023/09/08 01:39:57;;;;;;;14.35;12.20;;;;;;;;;;4979759;28;20054;-86
2023/09/08 01:42:25;;;;;;;12.80;11.43;;;;;;;;;;4979083;28;20070;-85
2023/09/08 01:44:52;;;;;;;15.93;12.90;;;;;;;;;;4979443;28;20077;-86
2023/09/08 01:47:19;;;;;;;21.88;13.98;;;;;;;;;;4979350;28;20058;-86
2023/09/08 01:49:46;;;;;;;14.55;13.05;;;;;;;;;;4979385;28;20081;-86
2023/09/08 01:52:14;;;;;;;14.68;11.77;;;;;;;;;;4979679;28;20057;-86
2023/09/08 01:54:41;;;;;;;13.32;12.02;;;;;;;;;;4979716;28;20053;-86
2023/09/08 01:57:08;;;;;;;12.48;11.23;;;;;;;;;;4996225;28;20062;-86
2023/09/08 01:59:36;;;;;;;13.45;11.98;;;;;;;;;;4996425;28;20418;-86
2023/09/08 02:02:04;;;;;;;13.73;12.32;;;;;;;;;;4979177;28;20055;-86
2023/09/08 02:04:31;;;;;;;12.25;10.95;;;;;;;;;;4996496;28;20101;-87
2023/09/08 02:06:59;;;;;;;16.17;12.38;;;;;;;;;;4995807;28;20101;-87
2023/09/08 02:09:34;;;;;;;15.57;12.23;;;;;;;;;;4979068;28;20054;-85
2023/09/08 02:12:01;;;;;;;13.93;12.13;;;;;;;;;;4978740;28;20050;-86
2023/09/08 02:14:29;;;;;;;13.75;12.45;;;;;;;;;;4978710;28;20054;-87
2023/09/08 02:16:56;;;;;;;13.32;11.93;;;;;;;;;;4978800;28;20459;-86
2023/09/08 02:19:24;;;;;;;12.45;11.15;;;;;;;;;;4978893;28;20046;-86
2023/09/08 02:21:51;;;;;;;13.18;11.65;;;;;;;;;;4995728;28;20082;-86
2023/09/08 02:24:18;;;;;;;13.70;12.27;;;;;;;;;;4978750;28;20108;-86
2023/09/08 02:26:46;;;;;;;15.27;12.02;;;;;;;;;;4995653;28;20078;-86
2023/09/08 02:29:13;;;;;;;12.93;11.63;;;;;;;;;;4978450;28;20113;-86
2023/09/08 02:31:40;;;;;;;14.45;12.95;;;;;;;;;;4977325;28;20498;-86
2023/09/08 02:34:08;;;;;;;13.57;12.18;;;;;;;;;;4978205;28;20406;-86
2023/09/08 02:36:35;;;;;;;14.27;12.77;;;;;;;;;;4995823;28;20050;-87
2023/09/08 02:39:02;;;;;;;13.98;12.45;;;;;;;;;;4978676;28;20054;-86
2023/09/08 02:41:29;;;;;;;13.65;11.18;;;;;;;;;;4997447;28;20050;-86
2023/09/08 02:43:57;;;;;;;14.38;12.80;;;;;;;;;;5012311;28;20058;-86
2023/09/08 02:46:24;;;;;;;13.73;12.27;;;;;;;;;;4990276;28;20058;-87
2023/09/08 02:48:52;;;;;;;14.02;11.10;;;;;;;;;;4996279;28;20553;-86
2023/09/08 02:51:20;;;;;;;15.98;12.43;;;;;;;;;;4978149;28;20494;-86
2023/09/08 02:53:47;;;;;;;12.95;11.63;;;;;;;;;;4995122;28;20084;-86
2023/09/08 02:56:14;;;;;;;13.95;12.55;;;;;;;;;;4977789;28;20137;-86
2023/09/08 02:58:41;;;;;;;13.20;11.82;;;;;;;;;;4978184;28;20074;-87
2023/09/08 03:01:14;;;;;;;13.55;11.77;;;;;;;;;;4995106;28;20054;-86
2023/09/08 03:03:42;;;;;;;12.95;11.55;;;;;;;;;;4977838;28;20065;-86
2023/09/08 03:06:10;;;;;;;15.30;12.00;;;;;;;;;;4977793;28;20054;-87
2023/09/08 03:08:37;;;;;;;15.77;10.90;;;;;;;;;;4978144;28;20046;-87
2023/09/08 03:11:05;;;;;;;12.70;11.27;;;;;;;;;;4977913;28;20050;-86
2023/09/08 03:13:36;;;;;;;13.75;12.20;;;;;;;;;;4978140;28;20050;-86
2023/09/08 03:16:04;;;;;;;16.92;12.05;;;;;;;;;;4977640;28;20410;-86
2023/09/08 03:18:32;;;;;;;13.68;11.77;;;;;;;;;;4995113;28;20058;-86
2023/09/08 03:21:03;;;;;;;13.20;11.75;;;;;;;;;;4977467;28;20054;-87
2023/09/08 03:23:30;;;;;;;13.35;11.95;;;;;;;;;;4994667;28;20058;-86
2023/09/08 03:25:57;;;;;;;16.50;12.93;;;;;;;;;;4994628;28;20054;-86
2023/09/08 03:28:25;;;;;;;13.05;11.82;;;;;;;;;;4994870;28;20112;-87
2023/09/08 03:30:52;;;;;;;13.15;11.77;;;;;;;;;;4977629;28;20457;-86
2023/09/08 03:33:19;;;;;;;13.88;11.95;;;;;;;;;;4994575;28;20113;-86
2023/09/08 03:35:47;;;;;;;13.43;11.52;;;;;;;;;;4977411;28;20050;-86
2023/09/08 03:38:14;;;;;;;13.70;12.35;;;;;;;;;;4977433;28;20105;-86
2023/09/08 03:40:42;;;;;;;15.48;12.60;;;;;;;;;;4975998;28;20054;-86
2023/09/08 03:43:09;;;;;;;13.30;11.63;;;;;;;;;;4976844;28;20643;-87
2023/09/08 03:45:37;;;;;;;13.85;11.75;;;;;;;;;;4977314;28;20510;-87
2023/09/08 03:48:04;;;;;;;13.75;12.30;;;;;;;;;;4994433;28;20046;-86
2023/09/08 03:50:31;;;;;;;15.20;12.48;;;;;;;;;;4977280;28;20054;-87
2023/09/08 03:52:59;;;;;;;15.38;13.05;;;;;;;;;;4977341;28;20090;-86
2023/09/08 03:55:27;;;;;;;14.02;12.40;;;;;;;;;;4977009;28;20050;-87
2023/09/08 03:57:54;;;;;;;13.35;12.07;;;;;;;;;;4977201;28;20078;-86
2023/09/08 04:00:22;;;;;;;13.52;12.13;;;;;;;;;;4976915;28;20101;-86
2023/09/08 04:02:50;;;;;;;13.82;12.02;;;;;;;;;;4993847;28;20483;-87
2023/09/08 04:05:18;;;;;;;14.40;12.90;;;;;;;;;;4994022;28;20050;-87
2023/09/08 04:07:46;;;;;;;15.20;12.88;;;;;;;;;;4993979;28;20406;-86
2023/09/08 04:10:13;;;;;;;14.50;12.77;;;;;;;;;;4976273;28;20047;-86
2023/09/08 04:12:41;;;;;;;18.52;12.82;;;;;;;;;;4976783;28;20490;-86
2023/09/08 04:15:09;;;;;;;15.52;13.70;;;;;;;;;;4976630;28;20474;-86
2023/09/08 04:17:36;;;;;;;15.27;11.77;;;;;;;;;;4993670;28;20459;-87
2023/09/08 04:20:05;;;;;;;17.73;13.77;;;;;;;;;;4980923;28;20050;-86
2023/09/08 04:22:32;;;;;;;15.50;13.65;;;;;;;;;;4994173;28;20101;-86
2023/09/08 04:25:00;;;;;;;16.13;13.43;;;;;;;;;;4993689;28;20490;-86
2023/09/08 04:27:27;;;;;;;13.80;12.20;;;;;;;;;;4976626;28;20487;-86
2023/09/08 04:29:55;;;;;;;17.35;13.18;;;;;;;;;;4993757;28;20054;-86
2023/09/08 04:32:22;;;;;;;14.45;12.95;;;;;;;;;;4994172;28;20117;-86
2023/09/08 04:34:49;;;;;;;18.48;14.15;;;;;;;;;;4976896;28;20054;-86
2023/09/08 04:37:17;;;;;;;17.35;12.93;;;;;;;;;;4976040;28;20431;-86
2023/09/08 04:39:44;;;;;;;14.95;13.35;;;;;;;;;;4976674;28;20102;-85
2023/09/08 04:42:12;;;;;;;16.13;13.05;;;;;;;;;;4976268;28;20047;-85
2023/09/08 04:44:40;;;;;;;13.85;12.40;;;;;;;;;;4994488;28;20318;-86
2023/09/08 04:47:07;;;;;;;14.65;12.18;;;;;;;;;;4976940;28;20046;-86
2023/09/08 04:49:34;;;;;;;21.98;14.15;;;;;;;;;;4993610;28;20549;-86
2023/09/08 04:52:02;;;;;;;16.70;13.10;;;;;;;;;;4976216;28;20388;-86
2023/09/08 04:54:29;;;;;;;16.05;14.35;;;;;;;;;;4976886;28;20047;-86
2023/09/08 04:56:57;;;;;;;24.42;13.68;;;;;;;;;;4979628;28;20483;-87
2023/09/08 04:59:42;;;;;;;15.40;12.50;;;;;;;;;;4997517;28;20058;-86
2023/09/08 05:02:09;;;;;;;14.40;12.90;;;;;;;;;;4997130;28;20050;-86
2023/09/08 05:04:37;;;;;;;37.50;27.80;;;;;;;;;;4997191;28;20054;-86
2023/09/08 05:07:04;;;;;;;32.13;24.42;;;;;;;;;;4996858;28;20080;-86
2023/09/08 05:09:33;;;;;;;103.50;59.92;;;;;;;;;;4979445;28;20054;-86
2023/09/08 05:12:01;;;;;;;77.20;46.60;;;;;;;;;;4997080;28;20124;-87
2023/09/08 05:14:28;;;;;;;44.35;24.20;;;;;;;;;;4997357;28;20046;-86
2023/09/08 05:16:56;;;;;;;57.03;39.80;;;;;;;;;;4979693;28;20043;-86
2023/09/08 05:19:23;;;;;;;68.15;49.67;;;;;;;;;;4980225;28;20053;-85
2023/09/08 05:21:51;;;;;;;68.93;49.40;;;;;;;;;;4980150;28;20046;-86
2023/09/08 05:24:20;;;;;;;65.30;48.63;;;;;;;;;;4980247;28;20058;-86
2023/09/08 05:26:48;;;;;;;41.35;32.17;;;;;;;;;;4997847;28;20058;-86
2023/09/08 05:29:15;;;;;;;37.10;27.00;;;;;;;;;;4999121;28;20043;-86
2023/09/08 05:31:43;;;;;;;29.13;23.65;;;;;;;;;;4982220;28;20153;-85
2023/09/08 05:34:10;;;;;;;26.35;22.52;;;;;;;;;;4961973;28;20483;-85
2023/09/08 05:36:39;;;;;;;29.42;20.83;;;;;;;;;;4979065;28;20053;-86
2023/09/08 05:39:07;;;;;;;37.95;26.63;;;;;;;;;;4978775;28;20051;-86
2023/09/08 05:41:34;;;;;;;36.03;28.67;;;;;;;;;;4960954;28;20105;-86
2023/09/08 05:44:02;;;;;;;50.72;35.85;;;;;;;;;;4960214;28;20058;-86
2023/09/08 05:46:29;;;;;;;50.45;35.63;;;;;;;;;;4960618;28;20055;-86
2023/09/08 05:48:57;;;;;;;44.63;30.30;;;;;;;;;;4960981;28;20047;-86
2023/09/08 05:51:27;;;;;;;38.83;29.73;;;;;;;;;;4962160;28;20051;-85
2023/09/08 05:53:54;;;;;;;36.60;28.85;;;;;;;;;;4969321;28;20561;-85
2023/09/08 05:56:25;;;;;;;27.45;20.88;;;;;;;;;;4968355;28;20142;-86
2023/09/08 05:58:52;;;;;;;23.27;16.08;;;;;;;;;;4969435;28;20129;-85
2023/09/08 06:01:19;;;;;;;15.27;11.10;;;;;;;;;;4975634;28;20498;-86
2023/09/08 06:03:49;;;;;;;15.38;8.70;;;;;;;;;;4979784;28;20054;-85
2023/09/08 06:06:16;;;;;;;9.80;7.15;;;;;;;;;;4995727;28;20046;-85
2023/09/08 06:08:43;;;;;;;8.57;5.88;;;;;;;;;;4995932;28;20046;-84
2023/09/08 06:11:12;;;;;;;7.35;5.57;;;;;;;;;;4995673;28;20081;-85
2023/09/08 06:13:39;;;;;;;8.90;5.80;;;;;;;;;;4995839;28;20165;-84
2023/09/08 06:16:07;;;;;;;6.97;5.78;;;;;;;;;;4995529;28;20082;-85
2023/09/08 06:18:39;;;;;;;13.38;6.68;;;;;;;;;;4995918;28;20043;-85
2023/09/08 06:21:07;;;;;;;6.63;5.78;;;;;;;;;;4978830;28;20565;-85
2023/09/08 06:23:35;;;;;;;11.23;6.80;;;;;;;;;;4995231;28;20054;-85
2023/09/08 06:26:04;;;;;;;14.90;6.85;;;;;;;;;;4995268;28;20050;-85
2023/09/08 06:28:31;;;;;;;7.93;6.03;;;;;;;;;;4978279;28;20120;-85
2023/09/08 06:30:59;;;;;;;7.65;6.13;;;;;;;;;;4990421;28;20050;-85
2023/09/08 06:33:27;;;;;;;9.07;6.65;;;;;;;;;;4977986;28;20050;-85
2023/09/08 06:35:54;;;;;;;7.00;6.28;;;;;;;;;;4977805;28;20458;-84
2023/09/08 06:38:22;;;;;;;9.02;5.65;;;;;;;;;;4995079;28;20054;-85
2023/09/08 06:40:52;;;;;;;12.00;6.03;;;;;;;;;;4977723;28;20113;-86
2023/09/08 06:43:20;;;;;;;7.40;6.07;;;;;;;;;;4988998;28;20503;-85
2023/09/08 06:45:48;;;;;;;8.23;5.55;;;;;;;;;;5014462;28;20449;-85
2023/09/08 06:48:16;;;;;;;5.90;5.40;;;;;;;;;;5014497;28;20129;-85
2023/09/08 06:50:45;;;;;;;7.18;5.90;;;;;;;;;;4997034;28;20077;-85
2023/09/08 06:53:12;;;;;;;7.22;5.57;;;;;;;;;;4996631;28;20049;-85
2023/09/08 06:55:39;;;;;;;6.38;5.78;;;;;;;;;;5014188;28;20438;-85
2023/09/08 06:58:11;;;;;;;6.28;5.68;;;;;;;;;;4997485;28;20053;-85
2023/09/08 07:00:39;;;;;;;8.90;6.47;;;;;;;;;;4996836;28;20516;-85
2023/09/08 07:03:08;;;;;;;7.43;5.25;;;;;;;;;;4996843;28;20057;-85
2023/09/08 07:05:35;;;;;;;8.93;6.43;;;;;;;;;;5014171;28;20564;-85
2023/09/08 07:08:03;;;;;;;6.90;5.88;;;;;;;;;;4996600;28;20057;-86
2023/09/08 07:10:30;;;;;;;6.05;5.32;;;;;;;;;;5014038;28;20058;-85
2023/09/08 07:12:57;;;;;;;6.18;5.57;;;;;;;;;;4996640;28;20136;-84
2023/09/08 07:15:25;;;;;;;7.60;5.57;;;;;;;;;;4996429;28;20046;-85
2023/09/08 07:17:52;;;;;;;8.15;5.32;;;;;;;;;;4996068;28;20100;-85
2023/09/08 07:20:20;;;;;;;16.95;6.13;;;;;;;;;;4996869;28;20050;-86
2023/09/08 07:22:47;;;;;;;8.18;5.70;;;;;;;;;;5013838;28;20104;-85
2023/09/08 07:25:14;;;;;;;19.25;5.78;;;;;;;;;;5013772;28;20054;-85
2023/09/08 07:27:42;;;;;;;6.50;5.80;;;;;;;;;;5012911;28;20104;-85
2023/09/08 07:30:09;;;;;;;9.43;5.18;;;;;;;;;;4996441;28;20049;-85
2023/09/08 07:32:37;;;;;;;20.48;6.45;;;;;;;;;;4996328;28;20096;-86
2023/09/08 07:35:04;;;;;;;8.73;5.03;;;;;;;;;;5013406;28;20056;-86
2023/09/08 07:37:31;;;;;;;21.80;5.93;;;;;;;;;;5013732;28;20406;-85
2023/09/08 07:39:59;;;;;;;18.25;6.30;;;;;;;;;;4996047;28;20053;-86
2023/09/08 07:42:27;;;;;;;17.77;5.75;;;;;;;;;;4995961;28;20135;-85
2023/09/08 07:44:54;;;;;;;46.25;7.63;;;;;;;;;;4995946;28;20046;-86
2023/09/08 07:47:21;;;;;;;29.30;6.22;;;;;;;;;;5013689;28;20050;-86
2023/09/08 07:49:48;;;;;;;21.98;5.70;;;;;;;;;;4996269;28;20081;-86
2023/09/08 07:52:16;;;;;;;23.27;5.07;;;;;;;;;;4996265;28;20550;-86
2023/09/08 07:54:43;;;;;;;5.07;4.30;;;;;;;;;;4996037;28;20054;-85
2023/09/08 07:57:10;;;;;;;63.92;10.48;;;;;;;;;;5013243;28;20425;-85
2023/09/08 07:59:37;;;;;;;130.70;16.02;;;;;;;;;;4996203;28;20559;-88
2023/09/08 08:02:05;;;;;;;72.40;11.75;;;;;;;;;;5013305;28;20049;-86
2023/09/08 08:04:32;;;;;;;398.73;70.75;;;;;;;;;;4996094;28;20270;-86
2023/09/08 08:06:59;;;;;;;91.10;15.57;;;;;;;;;;5013175;28;20052;-89
2023/09/08 08:09:27;;;;;;;52.03;10.50;;;;;;;;;;4996084;28;20061;-87
2023/09/08 08:11:54;;;;;;;106.03;17.45;;;;;;;;;;4995840;28;20062;-87
2023/09/08 08:14:23;;;;;;;107.80;14.70;;;;;;;;;;4996636;28;20151;-87
2023/09/08 08:16:51;;;;;;;126.32;17.77;;;;;;;;;;4995708;28;20096;-86
2023/09/08 08:19:18;;;;;;;251.30;49.17;;;;;;;;;;4996327;28;20056;-86
2023/09/08 08:21:45;;;;;;;424.85;91.82;;;;;;;;;;4995662;28;20053;-86
2023/09/08 08:24:13;;;;;;;275.55;53.25;;;;;;;;;;4995991;28;20050;-87
2023/09/08 08:26:43;;;;;;;191.60;32.63;;;;;;;;;;4996828;28;20050;-88
2023/09/08 08:29:11;;;;;;;201.27;33.83;;;;;;;;;;4997726;28;20053;-88
2023/09/08 08:31:38;;;;;;;82.50;17.10;;;;;;;;;;5000985;28;20436;-87
2023/09/08 08:34:06;;;;;;;60.72;12.38;;;;;;;;;;5023722;28;20057;-88
2023/09/08 08:36:33;;;;;;;31.50;7.88;;;;;;;;;;4999647;28;20053;-87
2023/09/08 08:39:01;;;;;;;49.97;10.93;;;;;;;;;;4999408;28;20056;-87
2023/09/08 08:41:29;;;;;;;47.60;16.48;;;;;;;;;;4999761;28;20049;-88
2023/09/08 08:43:56;;;;;;;63.40;24.30;;;;;;;;;;4999173;28;20054;-87
2023/09/08 08:46:24;;;;;;;67.25;17.05;;;;;;;;;;5016550;28;20503;-87
2023/09/08 08:48:54;;;;;;;49.60;11.55;;;;;;;;;;5016648;28;20486;-88
2023/09/08 08:51:23;;;;;;;41.17;10.80;;;;;;;;;;4999221;28;20129;-87
2023/09/08 08:53:51;;;;;;;35.50;10.55;;;;;;;;;;4999164;28;20138;-88
2023/09/08 08:56:19;;;;;;;20.55;8.57;;;;;;;;;;4999181;28;20458;-87
2023/09/08 08:58:47;;;;;;;13.13;6.55;;;;;;;;;;5016459;28;20093;-89
2023/09/08 09:01:16;;;;;;;21.55;8.10;;;;;;;;;;4999460;28;20050;-89
2023/09/08 09:03:44;;;;;;;18.75;8.55;;;;;;;;;;4999407;28;20054;-89
2023/09/08 09:06:12;;;;;;;19.33;7.40;;;;;;;;;;5016986;28;20046;-90
2023/09/08 09:08:39;;;;;;;17.15;7.47;;;;;;;;;;4999799;28;20077;-89
2023/09/08 09:11:06;;;;;;;9.68;5.63;;;;;;;;;;5017118;28;20405;-89
2023/09/08 09:13:34;;;;;;;6.05;3.90;;;;;;;;;;4999648;28;20050;-90
2023/09/08 09:16:03;;;;;;;13.02;4.68;;;;;;;;;;4999595;28;20088;-90
2023/09/08 09:18:31;;;;;;;5.78;3.20;;;;;;;;;;4999643;28;20046;-88
2023/09/08 09:20:59;;;;;;;8.60;4.03;;;;;;;;;;5016594;28;20045;-87
2023/09/08 09:23:34;;;;;;;26.27;10.90;;;;;;;;;;4999296;28;20042;-89
2023/09/08 09:26:04;;;;;;;3.97;3.20;;;;;;;;;;5016916;28;20058;-91
2023/09/08 09:28:32;;;;;;;6.80;3.70;;;;;;;;;;4999389;28;20046;-90
2023/09/08 09:31:00;;;;;;;7.32;3.60;;;;;;;;;;5016357;28;20128;-88
2023/09/08 09:33:28;;;;;;;8.55;3.72;;;;;;;;;;4999390;28;20077;-90
2023/09/08 09:35:57;;;;;;;6.75;3.80;;;;;;;;;;4999223;28;20096;-91
2023/09/08 09:38:26;;;;;;;6.28;2.75;;;;;;;;;;4999601;28;20062;-88
2023/09/08 09:40:54;;;;;;;4.82;2.92;;;;;;;;;;4997267;28;20457;-90
2023/09/08 09:43:25;;;;;;;4.93;2.75;;;;;;;;;;5016260;28;20123;-88
2023/09/08 09:45:53;;;;;;;3.28;2.70;;;;;;;;;;5016196;28;20107;-89
2023/09/08 09:48:23;;;;;;;5.10;2.53;;;;;;;;;;4999206;28;20050;-90
2023/09/08 09:50:51;;;;;;;3.05;2.53;;;;;;;;;;4999211;28;20145;-88
2023/09/08 09:53:18;;;;;;;2.67;2.47;;;;;;;;;;4998773;28;20050;-88
2023/09/08 09:55:46;;;;;;;5.85;3.03;;;;;;;;;;5016150;28;20050;-88
2023/09/08 09:58:15;;;;;;;3.20;2.72;;;;;;;;;;4998824;28;20050;-89
2023/09/08 10:00:47;;;;;;;4.28;2.58;;;;;;;;;;5016084;28;20112;-89
2023/09/08 10:03:16;;;;;;;5.35;2.50;;;;;;;;;;4998780;28;20471;-86
2023/09/08 10:05:43;;;;;;;2.75;2.50;;;;;;;;;;4998510;28;20050;-89
2023/09/08 10:08:10;;;;;;;4.72;2.15;;;;;;;;;;5015924;28;20050;-88
2023/09/08 10:10:38;;;;;;;3.72;2.55;;;;;;;;;;5015836;28;20049;-89
2023/09/08 10:13:07;;;;;;;2.40;2.30;;;;;;;;;;4998283;28;20050;-87
2023/09/08 10:15:34;;;;;;;2.97;2.13;;;;;;;;;;4998049;28;20132;-88
2023/09/08 10:18:04;;;;;;;5.65;2.40;;;;;;;;;;4998152;28;20486;-89
2023/09/08 10:20:33;;;;;;;6.13;2.47;;;;;;;;;;4998102;28;20137;-89
2023/09/08 10:23:08;;;;;;;5.45;2.38;;;;;;;;;;5015090;28;20084;-89
2023/09/08 10:25:38;;;;;;;4.70;2.33;;;;;;;;;;4998266;28;20155;-89
2023/09/08 10:28:08;;;;;;;4.20;2.40;;;;;;;;;;4998455;28;20050;-89
2023/09/08 10:30:36;;;;;;;2.30;2.20;;;;;;;;;;4998460;28;20049;-92
2023/09/08 10:33:06;;;;;;;2.25;2.15;;;;;;;;;;4998476;28;20520;-88
2023/09/08 10:35:34;;;;;;;5.82;2.30;;;;;;;;;;4997927;28;20447;-88
2023/09/08 10:38:20;;;;;;;9.43;2.45;;;;;;;;;;4997984;28;20046;-88
2023/09/08 10:40:47;;;;;;;4.72;2.83;;;;;;;;;;4997862;28;20046;-90
2023/09/08 10:43:14;;;;;;;6.15;2.60;;;;;;;;;;4997951;28;20399;-90
2023/09/08 10:45:41;;;;;;;3.90;1.95;;;;;;;;;;4998589;28;20127;-91
2023/09/08 10:48:10;;;;;;;4.85;2.00;;;;;;;;;;4997949;28;20124;-90
2023/09/08 10:50:41;;;;;;;2.47;2.35;;;;;;;;;;4998038;28;20067;-91
2023/09/08 10:53:18;;;;;;;10.73;2.47;;;;;;;;;;4997146;28;20081;-90
2023/09/08 10:55:50;;;;;;;6.30;2.30;;;;;;;;;;5015918;28;20096;-89
2023/09/08 10:58:42;;;;;;;3.65;2.35;;;;;;;;;;5002077;28;20049;-90
2023/09/08 11:01:17;;;;;;;4.15;2.30;;;;;;;;;;5004481;28;20050;-89
2023/09/08 11:03:46;;;;;;;4.28;2.13;;;;;;;;;;5001891;28;20054;-88
2023/09/08 11:06:17;;;;;;;3.35;2.20;;;;;;;;;;5015161;28;20081;-89
2023/09/08 11:08:46;;;;;;;4.65;2.58;;;;;;;;;;4998120;28;20054;-89
2023/09/08 11:11:16;;;;;;;2.63;2.42;;;;;;;;;;4998207;28;20053;-90
2023/09/08 11:13:46;;;;;;;5.20;2.30;;;;;;;;;;4998077;28;20046;-91
2023/09/08 11:16:21;;;;;;;2.20;2.10;;;;;;;;;;4997274;28;20041;-92
2023/09/08 11:18:51;;;;;;;2.28;2.00;;;;;;;;;;4997687;28;20379;-91
2023/09/08 11:21:18;;;;;;;2.60;2.40;;;;;;;;;;4997298;28;20054;-89
2023/09/08 11:23:45;;;;;;;2.45;1.90;;;;;;;;;;5014674;28;20112;-90
2023/09/08 11:26:13;;;;;;;3.40;2.08;;;;;;;;;;5014611;28;20050;-91
2023/09/08 11:28:41;;;;;;;4.80;2.88;;;;;;;;;;4997580;28;20117;-93
2023/09/08 11:31:12;;;;;;;4.53;2.42;;;;;;;;;;5014974;28;20060;-90
2023/09/08 11:33:40;;;;;;;2.65;2.45;;;;;;;;;;4997019;28;20050;-91
2023/09/08 11:36:14;;;;;;;3.55;2.67;;;;;;;;;;5014249;28;20097;-92
2023/09/08 11:38:44;;;;;;;7.10;2.58;;;;;;;;;;4997248;28;20045;-91
2023/09/08 11:41:11;;;;;;;4.45;2.42;;;;;;;;;;4997149;28;20049;-92
2023/09/08 11:43:39;;;;;;;6.32;2.50;;;;;;;;;;4996768;28;20081;-91
2023/09/08 11:46:06;;;;;;;4.93;2.83;;;;;;;;;;4998072;28;20053;-91
2023/09/08 11:48:35;;;;;;;2.60;2.40;;;;;;;;;;4996741;28;20124;-89
2023/09/08 11:51:03;;;;;;;2.78;2.58;;;;;;;;;;4996950;28;20042;-92
2023/09/08 11:53:33;;;;;;;2.58;2.38;;;;;;;;;;5014324;28;20100;-91
2023/09/08 11:56:00;;;;;;;2.15;2.05;;;;;;;;;;5014030;28;20050;-91
2023/09/08 11:58:28;;;;;;;3.05;2.10;;;;;;;;;;5014136;28;20041;-92
2023/09/08 12:00:55;;;;;;;10.45;3.05;;;;;;;;;;4997192;28;20053;-91
2023/09/08 12:03:22;;;;;;;7.70;2.30;;;;;;;;;;5013392;28;20454;-92
2023/09/08 12:05:53;;;;;;;7.82;2.35;;;;;;;;;;4996875;28;20148;-90
2023/09/08 12:08:20;;;;;;;3.88;2.00;;;;;;;;;;5015192;28;20470;-93
2023/09/08 12:10:48;;;;;;;3.45;1.92;;;;;;;;;;5014352;28;20281;-90
2023/09/08 12:13:21;;;;;;;2.65;1.63;;;;;;;;;;4996724;28;20100;-93
2023/09/08 12:15:48;;;;;;;1.60;1.50;;;;;;;;;;4996659;28;20057;-90
2023/09/08 12:18:15;;;;;;;1.90;1.50;;;;;;;;;;5013798;28;20124;-89
2023/09/08 12:20:43;;;;;;;4.05;1.65;;;;;;;;;;4997264;28;20494;-91
2023/09/08 12:23:17;;;;;;;3.53;1.67;;;;;;;;;;4997335;28;20049;-92
2023/09/08 12:25:48;;;;;;;2.08;1.50;;;;;;;;;;4996458;28;20077;-93
2023/09/08 12:28:17;;;;;;;2.00;1.50;;;;;;;;;;4997162;28;20430;-89
2023/09/08 12:30:45;;;;;;;10.45;2.17;;;;;;;;;;5013726;28;20061;-91
2023/09/08 12:33:14;;;;;;;1.70;1.30;;;;;;;;;;5013888;28;20096;-89
2023/09/08 12:35:46;;;;;;;2.58;1.80;;;;;;;;;;4996165;28;20045;-91
2023/09/08 12:38:13;;;;;;;2.28;1.70;;;;;;;;;;5014436;28;20130;-89
2023/09/08 12:40:41;;;;;;;2.20;1.60;;;;;;;;;;5016910;28;20053;-91
2023/09/08 12:43:08;;;;;;;1.67;1.58;;;;;;;;;;5020540;28;20054;-89
2023/09/08 12:45:54;;;;;;;9.43;1.83;;;;;;;;;;5012433;28;20053;-93
2023/09/08 12:48:22;;;;;;;1.63;1.55;;;;;;;;;;5017736;28;20077;-93
2023/09/08 12:50:49;;;;;;;1.83;1.73;;;;;;;;;;5013500;28;20053;-90
2023/09/08 12:53:21;;;;;;;2.25;1.50;;;;;;;;;;4995865;28;20089;-92
2023/09/08 12:55:49;;;;;;;2.42;1.80;;;;;;;;;;4996623;28;20073;-85
2023/09/08 12:58:16;;;;;;;1.67;1.55;;;;;;;;;;4996830;28;20103;-92
2023/09/08 13:00:44;;;;;;;2.45;1.83;;;;;;;;;;4996222;28;20050;-90
2023/09/08 13:03:11;;;;;;;4.03;1.92;;;;;;;;;;5013705;28;20054;-90
2023/09/08 13:05:39;;;;;;;2.17;1.98;;;;;;;;;;5013216;28;20053;-90
2023/09/08 13:08:07;;;;;;;3.80;2.22;;;;;;;;;;4996109;28;20081;-92
2023/09/08 13:10:34;;;;;;;5.28;1.85;;;;;;;;;;5013163;28;20625;-91
2023/09/08 13:13:05;;;;;;;3.47;1.85;;;;;;;;;;5015363;28;20100;-93
2023/09/08 13:15:33;;;;;;;5.97;1.90;;;;;;;;;;4984625;28;20510;-90
2023/09/08 13:18:00;;;;;;;2.28;2.08;;;;;;;;;;4999656;28;20050;-89
2023/09/08 13:20:28;;;;;;;1.90;1.80;;;;;;;;;;5016791;28;20116;-91
2023/09/08 13:22:55;;;;;;;2.20;1.80;;;;;;;;;;4999706;28;20060;-91
2023/09/08 13:25:23;;;;;;;2.78;2.15;;;;;;;;;;4999537;28;20144;-91
2023/09/08 13:27:50;;;;;;;2.70;1.95;;;;;;;;;;5000133;28;20111;-89
2023/09/08 13:30:18;;;;;;;3.20;1.98;;;;;;;;;;4999819;28;20108;-89
2023/09/08 13:32:47;;;;;;;1.92;1.77;;;;;;;;;;4999194;28;20049;-90
2023/09/08 13:35:14;;;;;;;2.45;1.90;;;;;;;;;;4999992;28;20077;-87
2023/09/08 13:37:42;;;;;;;2.15;1.92;;;;;;;;;;4999888;28;20106;-89
2023/09/08 13:40:10;;;;;;;2.22;2.00;;;;;;;;;;5001148;28;20042;-88
2023/09/08 13:42:37;;;;;;;2.65;1.85;;;;;;;;;;5002817;28;20119;-91
2023/09/08 13:45:05;;;;;;;2.03;1.92;;;;;;;;;;5006760;28;20482;-89
2023/09/08 13:47:32;;;;;;;2.20;2.10;;;;;;;;;;5022543;28;20053;-91
2023/09/08 13:50:00;;;;;;;1.92;1.73;;;;;;;;;;4999761;28;20048;-89
2023/09/08 13:52:32;;;;;;;1.88;1.70;;;;;;;;;;5000028;28;20411;-91
2023/09/08 13:55:04;;;;;;;2.30;1.83;;;;;;;;;;5016095;28;20049;-89
2023/09/08 13:57:52;;;;;;;2.95;1.90;;;;;;;;;;5001456;28;20065;-91
2023/09/08 14:00:22;;;;;;;2.33;2.13;;;;;;;;;;4998685;28;20049;-92
2023/09/08 14:02:51;;;;;;;1.85;1.67;;;;;;;;;;4999401;28;20045;-92
2023/09/08 14:05:25;;;;;;;3.67;1.80;;;;;;;;;;4999672;28;20111;-92
2023/09/08 14:08:01;;;;;;;2.28;1.98;;;;;;;;;;5000635;28;20072;-90
2023/09/08 14:10:34;;;;;;;1.75;1.65;;;;;;;;;;5016089;28;20045;-91
2023/09/08 14:13:04;;;;;;;2.05;1.80;;;;;;;;;;4998941;28;20046;-90
2023/09/08 14:15:32;;;;;;;2.38;1.50;;;;;;;;;;4998883;28;20832;-92
2023/09/08 14:17:59;;;;;;;2.10;1.60;;;;;;;;;;4998686;28;20050;-91
2023/09/08 14:20:27;;;;;;;2.22;2.03;;;;;;;;;;4999025;28;20045;-90
2023/09/08 14:22:54;;;;;;;1.83;1.73;;;;;;;;;;5016572;28;20050;-90
2023/09/08 14:25:22;;;;;;;2.78;1.70;;;;;;;;;;5015844;28;20104;-90
2023/09/08 14:27:49;;;;;;;6.07;3.53;;;;;;;;;;4998501;28;20108;-89
2023/09/08 14:30:16;;;;;;;6.30;3.30;;;;;;;;;;4998276;28;20081;-92
2023/09/08 14:32:43;;;;;;;2.40;2.20;;;;;;;;;;4998476;28;20100;-92
2023/09/08 14:35:11;;;;;;;6.45;3.40;;;;;;;;;;4998044;28;20053;-90